KOLM

Olympia Regional Airport

Olympia, Washington, USA
METAR KOLM 210415Z AUTO 19009KT 10SM BKN021 OVC070 07/05 A2998 RMK AO2 T00720050
Observed Flight Rules
Jan-21 @ 04:15 UTC (19 minutes ago) Marginal Visual Flight Rules
Wind Visibility Clouds
190° at 9 knots 10 miles
  • Broken at 2,100' AGL
  • Overcast at 7,000' AGL
Temperatures Readings
Current 7°C / 45°F
Dewpoint 5°C / 41°F
Humidity 87%
Altimeter 29.98" Hg
Pressure 1015 hPa
Elevation 58
METAR KOLM 210415Z AUTO 19009KT 10SM BKN021 OVC070 07/05 A2998 RMK AO2 T00720050
Observed Flight Rules
Jan-21 @ 04:15 UTC
(19 minutes ago)
MVFR
Wind Visibility
190° at 9 knots 10 miles
Clouds
  • Broken at 2,100' AGL
  • Overcast at 7,000' AGL
Temperature Dewpoint
7°C / 45°F 5°C / 41°F
Humidity Altimeter Pressure
87% 29.98" Hg 1015 hPa